createdAt,value
2018-03-02T00:00:20.129Z,0
2018-03-02T00:01:00.778Z,0
2018-03-02T00:01:41.360Z,0
2018-03-02T00:02:21.893Z,0
2018-03-02T00:03:02.422Z,0
2018-03-02T00:03:43.156Z,0
2018-03-02T00:04:23.773Z,0
2018-03-02T00:05:04.716Z,0
2018-03-02T00:05:45.281Z,0
2018-03-02T00:06:25.833Z,0
2018-03-02T00:07:06.385Z,0
2018-03-02T00:07:47.025Z,0
2018-03-02T00:08:27.608Z,0
2018-03-02T00:09:08.108Z,0
2018-03-02T00:09:48.686Z,0
2018-03-02T00:10:29.218Z,0
2018-03-02T00:11:09.814Z,0
2018-03-02T00:11:50.391Z,0
2018-03-02T00:12:30.945Z,0
2018-03-02T00:13:11.497Z,0
2018-03-02T00:13:52.111Z,0
2018-03-02T00:14:32.654Z,0
2018-03-02T00:15:13.225Z,0
2018-03-02T00:15:53.757Z,0
2018-03-02T00:16:34.306Z,0
2018-03-02T00:17:14.874Z,0
2018-03-02T00:17:55.423Z,0
2018-03-02T00:18:35.991Z,0
2018-03-02T00:19:16.577Z,0
2018-03-02T00:19:57.446Z,0
2018-03-02T00:20:38.230Z,0
2018-03-02T00:21:18.699Z,0
2018-03-02T00:21:59.408Z,0
2018-03-02T00:22:39.965Z,0
2018-03-02T00:23:20.556Z,0
2018-03-02T00:24:01.114Z,0
2018-03-02T00:24:41.844Z,0
2018-03-02T00:25:22.899Z,0
2018-03-02T00:26:03.605Z,0
2018-03-02T00:26:44.350Z,0
2018-03-02T00:27:24.885Z,0
2018-03-02T00:28:05.613Z,0
2018-03-02T00:28:46.253Z,0
2018-03-02T00:29:26.886Z,0
2018-03-02T00:30:07.487Z,0
2018-03-02T00:30:48.056Z,0
2018-03-02T00:31:28.623Z,0
2018-03-02T00:32:09.208Z,0
2018-03-02T00:32:49.797Z,0
2018-03-02T00:33:30.302Z,0
2018-03-02T00:34:10.869Z,0
2018-03-02T00:34:51.414Z,0
2018-03-02T00:35:31.975Z,0
2018-03-02T00:36:12.529Z,0
2018-03-02T00:36:53.340Z,0
2018-03-02T00:37:34.222Z,0
2018-03-02T00:38:14.750Z,0
2018-03-02T00:38:55.299Z,0
2018-03-02T00:39:35.851Z,0
2018-03-02T00:40:16.386Z,0
2018-03-02T00:40:56.961Z,0
2018-03-02T00:41:37.741Z,0
2018-03-02T00:42:18.289Z,0
2018-03-02T00:42:58.758Z,0
2018-03-02T00:43:39.446Z,0
2018-03-02T00:44:20.024Z,0
2018-03-02T00:45:00.619Z,0
2018-03-02T00:45:41.164Z,0
2018-03-02T00:46:21.712Z,0
2018-03-02T00:47:02.285Z,0
2018-03-02T00:47:42.825Z,0
2018-03-02T00:48:23.450Z,0
2018-03-02T00:49:04.825Z,0
2018-03-02T00:49:44.767Z,0
2018-03-02T00:50:25.627Z,0
2018-03-02T00:51:06.048Z,0
2018-03-02T00:51:46.639Z,0
2018-03-02T00:52:27.242Z,0
2018-03-02T00:53:07.845Z,0
2018-03-02T00:53:48.420Z,0
2018-03-02T00:54:28.962Z,0
2018-03-02T00:55:09.511Z,0
2018-03-02T00:55:50.116Z,0
2018-03-02T00:56:30.629Z,0
2018-03-02T00:57:11.182Z,0
2018-03-02T00:57:51.825Z,0
2018-03-02T00:58:32.348Z,0
2018-03-02T00:59:12.954Z,0
2018-03-02T00:59:53.455Z,0
2018-03-02T01:00:34.013Z,0
2018-03-02T01:01:14.572Z,0
2018-03-02T01:01:55.120Z,0
2018-03-02T01:02:35.793Z,0
2018-03-02T01:03:16.365Z,0
2018-03-02T01:03:56.909Z,0
2018-03-02T01:04:37.459Z,0
2018-03-02T01:05:18.002Z,0
2018-03-02T01:05:58.558Z,0
2018-03-02T01:06:39.102Z,0
2018-03-02T01:07:19.654Z,0
2018-03-02T01:08:00.215Z,0
2018-03-02T01:08:40.788Z,0
2018-03-02T01:09:21.368Z,0
2018-03-02T01:10:01.922Z,0
2018-03-02T01:10:42.527Z,0
2018-03-02T01:11:23.087Z,0
2018-03-02T01:12:03.647Z,0
2018-03-02T01:12:44.183Z,0
2018-03-02T01:13:24.732Z,0
2018-03-02T01:14:05.269Z,0
2018-03-02T01:14:45.817Z,0
2018-03-02T01:15:26.375Z,0
2018-03-02T01:16:06.958Z,0
2018-03-02T01:16:47.605Z,0
2018-03-02T01:17:28.146Z,0
2018-03-02T01:18:08.696Z,0
2018-03-02T01:18:49.286Z,0
2018-03-02T01:19:29.813Z,0
2018-03-02T01:20:10.447Z,0
2018-03-02T01:20:51.018Z,0
2018-03-02T01:21:31.594Z,0
2018-03-02T01:22:12.149Z,0
2018-03-02T01:22:52.714Z,0
2018-03-02T01:23:33.275Z,0
2018-03-02T01:24:13.848Z,0
2018-03-02T01:24:54.398Z,0
2018-03-02T01:25:34.952Z,0
2018-03-02T01:26:15.521Z,0
2018-03-02T01:26:56.049Z,0
2018-03-02T01:27:36.591Z,0
2018-03-02T01:28:17.135Z,0
2018-03-02T01:28:57.681Z,0
2018-03-02T01:29:38.240Z,0
2018-03-02T01:30:18.783Z,0
2018-03-02T01:30:59.340Z,0
2018-03-02T01:31:39.876Z,0
2018-03-02T01:32:20.435Z,0
2018-03-02T01:33:00.985Z,0
2018-03-02T01:33:41.580Z,0
2018-03-02T01:34:22.162Z,0
2018-03-02T01:35:02.667Z,0
2018-03-02T01:35:43.226Z,0
2018-03-02T01:36:23.773Z,0
2018-03-02T01:37:04.327Z,0
2018-03-02T01:37:44.870Z,0
2018-03-02T01:38:25.405Z,0
2018-03-02T01:39:05.950Z,0
2018-03-02T01:39:46.496Z,0
2018-03-02T01:40:27.045Z,0
2018-03-02T01:41:07.600Z,0
2018-03-02T01:41:48.174Z,0
2018-03-02T01:42:28.696Z,0
2018-03-02T01:43:09.245Z,0
2018-03-02T01:43:49.833Z,0
2018-03-02T01:44:30.429Z,0
2018-03-02T01:45:10.990Z,0
2018-03-02T01:45:51.538Z,0
2018-03-02T01:48:09.408Z,0
2018-03-02T01:48:49.960Z,0
2018-03-02T01:49:30.588Z,0
2018-03-02T01:50:11.067Z,0
2018-03-02T01:50:51.614Z,0
2018-03-02T01:51:32.164Z,0
2018-03-02T01:52:12.707Z,0
2018-03-02T01:52:53.259Z,0
2018-03-02T01:53:33.800Z,0
2018-03-02T01:54:14.364Z,0
2018-03-02T01:54:54.916Z,0
2018-03-02T01:55:35.468Z,0
2018-03-02T01:56:16.006Z,0
2018-03-02T01:56:56.544Z,0
2018-03-02T01:57:37.101Z,0
2018-03-02T01:58:17.653Z,0
2018-03-02T01:58:58.202Z,0
2018-03-02T01:59:38.754Z,0
2018-03-02T02:00:19.305Z,0
2018-03-02T02:00:59.852Z,0
2018-03-02T02:01:40.392Z,0
2018-03-02T02:02:20.960Z,0
2018-03-02T02:03:01.505Z,0
2018-03-02T02:03:42.052Z,0
2018-03-02T02:04:22.596Z,0
2018-03-02T02:05:03.148Z,0
2018-03-02T02:05:43.709Z,0
2018-03-02T02:06:24.252Z,0
2018-03-02T02:07:04.822Z,0
2018-03-02T02:07:45.354Z,0
2018-03-02T02:08:25.909Z,0
2018-03-02T02:09:06.495Z,0
2018-03-02T02:09:47.057Z,0
2018-03-02T02:10:27.596Z,0
2018-03-02T02:11:08.152Z,0
2018-03-02T02:11:48.698Z,0
2018-03-02T02:12:29.268Z,0
2018-03-02T02:13:09.846Z,0
2018-03-02T02:13:50.376Z,0
2018-03-02T02:14:30.942Z,0
2018-03-02T02:15:11.496Z,0
2018-03-02T02:15:52.084Z,0
2018-03-02T02:16:32.627Z,0
2018-03-02T02:17:13.206Z,0
2018-03-02T02:17:53.758Z,0
2018-03-02T02:18:34.317Z,0
2018-03-02T02:19:14.862Z,0
2018-03-02T02:19:55.437Z,0
2018-03-02T02:20:36.016Z,0
2018-03-02T02:21:16.570Z,0
2018-03-02T02:21:57.119Z,0
2018-03-02T02:22:37.671Z,0
2018-03-02T02:23:18.214Z,0
2018-03-02T02:23:58.761Z,0
2018-03-02T02:24:39.383Z,0
2018-03-02T02:25:19.928Z,0
2018-03-02T02:26:00.471Z,0
2018-03-02T02:26:41.023Z,0
2018-03-02T02:27:21.586Z,0
2018-03-02T02:28:02.117Z,0
2018-03-02T02:28:42.670Z,0
2018-03-02T02:29:23.254Z,0
2018-03-02T02:30:03.819Z,0
2018-03-02T02:30:44.366Z,0
2018-03-02T02:31:24.919Z,0
2018-03-02T02:32:05.480Z,0
2018-03-02T02:32:46.035Z,0
2018-03-02T02:33:26.574Z,0
2018-03-02T02:34:07.144Z,0
2018-03-02T02:34:47.685Z,0
2018-03-02T02:35:28.237Z,0
2018-03-02T02:36:08.800Z,0
2018-03-02T02:36:49.337Z,0
2018-03-02T02:37:29.885Z,0
2018-03-02T02:38:10.472Z,0
2018-03-02T02:38:51.046Z,0
2018-03-02T02:39:31.579Z,0
2018-03-02T02:40:12.134Z,0
2018-03-02T02:40:52.670Z,0
2018-03-02T02:41:33.251Z,0
2018-03-02T02:42:13.787Z,0
2018-03-02T02:42:54.361Z,0
2018-03-02T02:43:34.879Z,0
2018-03-02T02:44:15.430Z,0
2018-03-02T02:44:55.984Z,0
2018-03-02T02:45:36.573Z,0
2018-03-02T02:46:17.139Z,0
2018-03-02T02:46:57.694Z,0
2018-03-02T02:47:38.252Z,0
2018-03-02T02:48:18.804Z,0
2018-03-02T02:48:59.385Z,0
2018-03-02T02:49:39.934Z,0
2018-03-02T02:50:20.518Z,0
2018-03-02T02:51:01.034Z,0
2018-03-02T02:51:41.590Z,0
2018-03-02T02:52:22.135Z,0
2018-03-02T02:53:02.676Z,0
2018-03-02T02:53:43.218Z,0
2018-03-02T02:54:23.773Z,0
2018-03-02T02:55:04.316Z,0
2018-03-02T02:55:44.884Z,0
2018-03-02T02:56:25.441Z,0
2018-03-02T02:57:05.999Z,0
2018-03-02T02:57:46.560Z,0
2018-03-02T02:58:27.120Z,0
2018-03-02T02:59:07.678Z,0
2018-03-02T02:59:48.242Z,0
2018-03-02T03:00:28.799Z,0
2018-03-02T03:01:09.365Z,0
2018-03-02T03:01:49.921Z,0
2018-03-02T03:02:30.477Z,0
2018-03-02T03:03:11.018Z,0
2018-03-02T03:03:51.575Z,0
2018-03-02T03:04:32.115Z,0
2018-03-02T03:05:12.676Z,0
2018-03-02T03:05:53.241Z,0
2018-03-02T03:06:33.808Z,0
2018-03-02T03:07:14.361Z,0
2018-03-02T03:07:54.930Z,0
2018-03-02T03:08:35.484Z,0
2018-03-02T03:09:16.031Z,0
2018-03-02T03:09:56.586Z,0
2018-03-02T03:10:37.147Z,0
2018-03-02T03:11:17.706Z,0
2018-03-02T03:11:58.294Z,0
2018-03-02T03:12:38.812Z,0
2018-03-02T03:13:19.375Z,0
2018-03-02T03:13:59.931Z,0
2018-03-02T03:14:40.495Z,0
2018-03-02T03:15:21.059Z,0
2018-03-02T03:16:01.608Z,0
2018-03-02T03:16:42.165Z,0
2018-03-02T03:17:22.718Z,0
2018-03-02T03:18:03.274Z,0
2018-03-02T03:18:43.828Z,0
2018-03-02T03:19:24.384Z,0
2018-03-02T03:20:04.939Z,0
2018-03-02T03:20:45.493Z,0
2018-03-02T03:21:26.058Z,0
2018-03-02T03:22:06.640Z,0
2018-03-02T03:22:47.189Z,0
2018-03-02T03:23:27.747Z,0
2018-03-02T03:24:08.296Z,0
2018-03-02T03:24:48.851Z,0
2018-03-02T03:25:29.400Z,0
2018-03-02T03:26:09.956Z,0
2018-03-02T03:26:50.535Z,0
2018-03-02T03:27:31.083Z,0
2018-03-02T03:28:11.635Z,0
2018-03-02T03:28:52.185Z,0
2018-03-02T03:29:32.734Z,0
2018-03-02T03:30:13.292Z,0
2018-03-02T03:30:53.844Z,0
2018-03-02T03:31:34.399Z,0
2018-03-02T03:32:14.956Z,0
2018-03-02T03:32:55.508Z,0
2018-03-02T03:33:36.063Z,0
2018-03-02T03:34:16.609Z,0
2018-03-02T03:34:57.162Z,0
2018-03-02T03:35:37.807Z,0
2018-03-02T03:36:18.360Z,0
2018-03-02T03:36:58.904Z,0
2018-03-02T03:37:39.495Z,0
2018-03-02T03:38:20.022Z,0
2018-03-02T03:39:00.577Z,0
2018-03-02T03:39:41.117Z,0
2018-03-02T03:40:21.661Z,0
2018-03-02T03:41:02.219Z,0
2018-03-02T03:41:42.794Z,0
2018-03-02T03:42:23.327Z,0
2018-03-02T03:43:03.885Z,0
2018-03-02T03:43:44.452Z,0
2018-03-02T03:44:25.007Z,0
2018-03-02T03:45:05.558Z,0
2018-03-02T03:45:46.112Z,0
2018-03-02T03:46:26.683Z,0
2018-03-02T03:47:07.228Z,0
2018-03-02T03:47:47.797Z,0
2018-03-02T03:48:28.391Z,0
2018-03-02T03:49:08.933Z,0
2018-03-02T03:49:49.514Z,0
2018-03-02T03:50:30.068Z,0
2018-03-02T03:51:10.638Z,0
2018-03-02T03:51:51.178Z,0
2018-03-02T03:52:31.722Z,0
2018-03-02T03:53:12.282Z,0
2018-03-02T03:53:52.837Z,0
2018-03-02T03:54:33.404Z,0
2018-03-02T03:55:14.001Z,0
2018-03-02T03:55:54.547Z,0
2018-03-02T03:56:35.079Z,0
2018-03-02T03:57:15.640Z,0
2018-03-02T03:57:56.220Z,0
2018-03-02T03:58:36.742Z,0
2018-03-02T03:59:17.302Z,0
2018-03-02T03:59:57.869Z,0
2018-03-02T04:00:38.421Z,0
2018-03-02T04:01:18.971Z,0
2018-03-02T04:01:59.500Z,0
2018-03-02T04:02:40.061Z,0
2018-03-02T04:03:20.602Z,0
2018-03-02T04:04:01.171Z,0
2018-03-02T04:04:41.700Z,0
2018-03-02T04:05:22.274Z,0
2018-03-02T04:06:02.819Z,0
2018-03-02T04:06:43.372Z,0
2018-03-02T04:07:23.925Z,0
2018-03-02T04:08:04.506Z,0
2018-03-02T04:08:45.054Z,0
2018-03-02T04:09:25.619Z,0
2018-03-02T04:10:06.157Z,0
2018-03-02T04:10:46.732Z,0
2018-03-02T04:11:27.306Z,0
2018-03-02T04:12:07.862Z,0
2018-03-02T04:12:48.411Z,0
2018-03-02T04:13:28.972Z,0
2018-03-02T04:14:09.530Z,0
2018-03-02T04:14:50.085Z,0
2018-03-02T04:15:30.632Z,0
2018-03-02T04:16:11.174Z,0
2018-03-02T04:16:51.743Z,0
2018-03-02T04:17:32.267Z,0
2018-03-02T04:18:12.814Z,0
2018-03-02T04:18:53.363Z,0
2018-03-02T04:19:33.917Z,0
2018-03-02T04:20:14.470Z,0
2018-03-02T04:20:55.015Z,0
2018-03-02T04:21:35.571Z,0
2018-03-02T04:22:16.111Z,0
2018-03-02T04:22:56.664Z,0
2018-03-02T04:23:37.230Z,0
2018-03-02T04:24:17.782Z,0
2018-03-02T04:24:58.336Z,0
2018-03-02T04:25:38.885Z,0
2018-03-02T04:26:19.441Z,0
2018-03-02T04:26:59.996Z,0
2018-03-02T04:27:40.550Z,0
2018-03-02T04:28:21.109Z,0
2018-03-02T04:29:01.652Z,0
2018-03-02T04:29:42.198Z,0
2018-03-02T04:30:22.754Z,0
2018-03-02T04:31:03.323Z,0
2018-03-02T04:31:43.877Z,0
2018-03-02T04:32:24.435Z,0
2018-03-02T04:33:05.021Z,0
2018-03-02T04:33:45.566Z,0
2018-03-02T04:34:26.124Z,0
2018-03-02T04:35:06.677Z,0
2018-03-02T04:35:47.245Z,0
2018-03-02T04:36:27.811Z,0
2018-03-02T04:37:08.365Z,0
2018-03-02T04:37:48.912Z,0
2018-03-02T04:38:29.466Z,0
2018-03-02T04:39:10.020Z,0
2018-03-02T04:39:50.562Z,0
2018-03-02T04:40:31.124Z,0
2018-03-02T04:41:11.671Z,0
2018-03-02T04:41:52.220Z,0
2018-03-02T04:42:32.770Z,0
2018-03-02T04:43:13.322Z,0
2018-03-02T04:43:53.891Z,0
2018-03-02T04:44:34.458Z,0
2018-03-02T04:45:15.013Z,0
2018-03-02T04:45:55.570Z,0
2018-03-02T04:46:36.108Z,0
2018-03-02T04:47:16.676Z,0
2018-03-02T04:47:57.228Z,0
2018-03-02T04:48:37.805Z,0
2018-03-02T04:49:18.395Z,0
2018-03-02T04:49:58.947Z,0
2018-03-02T04:50:39.557Z,0
2018-03-02T04:51:20.117Z,0
2018-03-02T04:52:00.707Z,0
2018-03-02T04:52:41.284Z,0
2018-03-02T04:53:21.786Z,0
2018-03-02T04:54:02.358Z,0
2018-03-02T04:54:42.913Z,0
2018-03-02T04:55:23.503Z,0
2018-03-02T04:56:04.040Z,0
2018-03-02T04:56:44.611Z,0
2018-03-02T04:57:25.163Z,0
2018-03-02T04:58:05.742Z,0
2018-03-02T04:58:46.307Z,0
2018-03-02T04:59:26.868Z,0
2018-03-02T05:00:07.401Z,0
2018-03-02T05:00:47.949Z,0
2018-03-02T05:01:28.497Z,0
2018-03-02T05:02:09.054Z,0
2018-03-02T05:02:49.604Z,0
2018-03-02T05:03:30.163Z,0
2018-03-02T05:04:10.725Z,0
2018-03-02T05:04:51.277Z,0
2018-03-02T05:05:31.933Z,0
2018-03-02T05:06:12.635Z,0
2018-03-02T05:06:53.201Z,0
2018-03-02T05:07:33.794Z,0
2018-03-02T05:08:14.353Z,0
2018-03-02T05:08:54.912Z,0
2018-03-02T05:09:35.517Z,0
2018-03-02T05:10:16.064Z,0
2018-03-02T05:10:57.554Z,0
2018-03-02T05:11:38.107Z,0
2018-03-02T05:12:18.659Z,0
2018-03-02T05:12:59.211Z,0
2018-03-02T05:13:39.758Z,0
2018-03-02T05:14:20.295Z,0
2018-03-02T05:15:00.898Z,0
2018-03-02T05:15:41.500Z,0
2018-03-02T05:16:22.053Z,0
2018-03-02T05:17:02.594Z,0
2018-03-02T05:17:43.168Z,0
2018-03-02T05:18:23.699Z,0
2018-03-02T05:19:04.255Z,0
2018-03-02T05:19:44.813Z,0
2018-03-02T05:20:25.380Z,0
2018-03-02T05:21:05.986Z,0
2018-03-02T05:21:46.488Z,0
2018-03-02T05:22:27.040Z,0
2018-03-02T05:23:07.589Z,0
2018-03-02T05:23:48.165Z,0
2018-03-02T05:24:28.720Z,0
2018-03-02T05:25:09.301Z,0
2018-03-02T05:25:49.854Z,0
2018-03-02T05:26:30.443Z,0
2018-03-02T05:27:11.001Z,0
2018-03-02T05:27:51.563Z,0
2018-03-02T05:28:32.085Z,0
2018-03-02T05:29:12.651Z,0
2018-03-02T05:29:53.212Z,0
2018-03-02T05:30:33.773Z,0
2018-03-02T05:31:14.352Z,0
2018-03-02T05:31:54.912Z,0
2018-03-02T05:32:35.469Z,0
2018-03-02T05:33:16.027Z,0
2018-03-02T05:33:56.572Z,0
2018-03-02T05:34:37.139Z,0
2018-03-02T05:35:17.783Z,0
2018-03-02T05:35:58.327Z,0
2018-03-02T05:36:38.873Z,0
2018-03-02T05:37:19.481Z,0
2018-03-02T05:38:00.038Z,0
2018-03-02T05:38:40.591Z,0
2018-03-02T05:39:21.127Z,0
2018-03-02T05:40:01.702Z,0
2018-03-02T05:40:42.237Z,0
2018-03-02T05:41:22.791Z,0
2018-03-02T05:42:03.364Z,0
2018-03-02T05:42:43.920Z,0
2018-03-02T05:43:24.484Z,0
2018-03-02T05:44:05.030Z,0
2018-03-02T05:44:45.606Z,0
2018-03-02T05:45:26.143Z,0
2018-03-02T05:46:06.692Z,0
2018-03-02T05:46:47.256Z,0
2018-03-02T05:47:27.812Z,0
2018-03-02T05:48:08.374Z,0
2018-03-02T05:48:48.988Z,0
2018-03-02T05:49:29.535Z,0
2018-03-02T05:50:10.105Z,0
2018-03-02T05:50:50.658Z,0
2018-03-02T05:51:31.199Z,5
2018-03-02T05:52:11.761Z,5
2018-03-02T05:52:52.312Z,5
2018-03-02T05:53:32.870Z,5
2018-03-02T05:54:13.411Z,5
2018-03-02T05:54:53.978Z,5
2018-03-02T05:55:37.293Z,5
2018-03-02T05:57:50.063Z,5
2018-03-02T05:58:30.604Z,5
2018-03-02T05:59:11.153Z,5
2018-03-02T05:59:51.705Z,5
2018-03-02T06:00:32.281Z,5
2018-03-02T06:01:12.902Z,10
2018-03-02T06:01:53.480Z,10
2018-03-02T06:02:34.032Z,10
2018-03-02T06:03:14.584Z,10
2018-03-02T06:03:55.136Z,10
2018-03-02T06:04:35.687Z,10
2018-03-02T06:05:16.231Z,10
2018-03-02T06:05:56.797Z,10
2018-03-02T06:06:37.344Z,10
2018-03-02T06:07:17.920Z,10
2018-03-02T06:07:58.484Z,15
2018-03-02T06:08:39.042Z,15
2018-03-02T06:09:19.565Z,15
2018-03-02T06:10:00.106Z,15
2018-03-02T06:10:40.669Z,15
2018-03-02T06:11:21.241Z,15
2018-03-02T06:12:01.794Z,15
2018-03-02T06:12:42.433Z,15
2018-03-02T06:13:22.973Z,20
2018-03-02T06:14:03.524Z,20
2018-03-02T06:14:44.069Z,20
2018-03-02T06:15:24.627Z,20
2018-03-02T06:16:05.180Z,20
2018-03-02T06:16:45.730Z,20
2018-03-02T06:17:26.266Z,20
2018-03-02T06:18:06.893Z,20
2018-03-02T06:18:47.555Z,25
2018-03-02T06:19:28.122Z,25
2018-03-02T06:20:08.664Z,25
2018-03-02T06:20:49.297Z,25
2018-03-02T06:21:29.925Z,25
2018-03-02T06:22:10.548Z,25
2018-03-02T06:22:51.219Z,30
2018-03-02T06:23:31.770Z,30
2018-03-02T06:24:12.324Z,30
2018-03-02T06:24:52.879Z,30
2018-03-02T06:25:33.429Z,30
2018-03-02T06:26:14.200Z,30
2018-03-02T06:26:54.810Z,30
2018-03-02T06:27:35.650Z,35
2018-03-02T06:28:16.312Z,35
2018-03-02T06:28:56.853Z,35
2018-03-02T06:29:37.398Z,35
2018-03-02T06:30:17.975Z,35
2018-03-02T06:30:58.539Z,35
2018-03-02T06:31:39.048Z,40
2018-03-02T06:32:19.617Z,40
2018-03-02T06:33:00.187Z,40
2018-03-02T06:33:40.733Z,40
2018-03-02T06:34:21.354Z,40
2018-03-02T06:35:02.128Z,40
2018-03-02T06:35:45.089Z,45
2018-03-02T06:36:25.766Z,45
2018-03-02T06:37:06.288Z,45
2018-03-02T06:37:46.846Z,45
2018-03-02T06:38:27.401Z,45
2018-03-02T06:39:07.959Z,45
2018-03-02T06:39:48.518Z,50
2018-03-02T06:40:29.086Z,50
2018-03-02T06:41:09.671Z,50
2018-03-02T06:41:50.263Z,50
2018-03-02T06:42:30.848Z,55
2018-03-02T06:43:11.387Z,55
2018-03-02T06:43:52.826Z,55
2018-03-02T06:44:33.385Z,55
2018-03-02T06:45:13.957Z,55
2018-03-02T06:45:54.489Z,55
2018-03-02T06:46:35.273Z,55
2018-03-02T06:47:15.995Z,60
2018-03-02T06:47:56.438Z,60
2018-03-02T06:48:36.994Z,60
2018-03-02T06:49:17.743Z,60
2018-03-02T06:49:58.298Z,60
2018-03-02T06:50:38.837Z,65
2018-03-02T06:51:19.392Z,65
2018-03-02T06:51:59.955Z,65
2018-03-02T06:52:40.556Z,65
2018-03-02T06:53:21.129Z,65
2018-03-02T06:54:01.693Z,70
2018-03-02T06:54:42.270Z,70
2018-03-02T06:55:22.844Z,70
2018-03-02T06:56:03.362Z,70
2018-03-02T06:56:44.137Z,70
2018-03-02T06:57:24.698Z,75
2018-03-02T06:58:05.256Z,75
2018-03-02T06:58:45.847Z,75
2018-03-02T06:59:26.464Z,75
2018-03-02T07:00:07.013Z,75
2018-03-02T07:00:47.623Z,80
2018-03-02T07:01:28.174Z,80
2018-03-02T07:02:08.741Z,80
2018-03-02T07:02:49.301Z,80
2018-03-02T07:03:29.831Z,85
2018-03-02T07:04:10.385Z,85
2018-03-02T07:04:51.045Z,85
2018-03-02T07:05:31.867Z,85
2018-03-02T07:06:12.413Z,85
2018-03-02T07:06:52.966Z,85
2018-03-02T07:07:33.544Z,85
2018-03-02T07:08:14.138Z,85
2018-03-02T07:08:54.688Z,90
2018-03-02T07:09:35.267Z,90
2018-03-02T07:10:15.782Z,90
2018-03-02T07:10:56.336Z,95
2018-03-02T07:11:36.896Z,95
2018-03-02T07:12:17.457Z,90
2018-03-02T07:12:58.021Z,95
2018-03-02T07:13:38.571Z,95
2018-03-02T07:14:19.128Z,95
2018-03-02T07:14:59.671Z,95
2018-03-02T07:15:40.231Z,95
2018-03-02T07:16:20.798Z,100
2018-03-02T07:17:01.381Z,100
2018-03-02T07:17:41.954Z,100
2018-03-02T07:18:22.503Z,100
2018-03-02T07:19:03.052Z,100
2018-03-02T07:19:43.597Z,100
2018-03-02T07:20:24.166Z,100
2018-03-02T07:21:04.732Z,100
2018-03-02T07:21:45.272Z,105
2018-03-02T07:22:25.827Z,105
2018-03-02T07:23:06.388Z,105
2018-03-02T07:23:46.995Z,105
2018-03-02T07:24:27.544Z,105
2018-03-02T07:25:08.086Z,110
2018-03-02T07:25:48.651Z,110
2018-03-02T07:26:29.214Z,110
2018-03-02T07:27:09.802Z,110
2018-03-02T07:27:50.353Z,115
2018-03-02T07:28:30.920Z,110
2018-03-02T07:29:11.464Z,110
2018-03-02T07:29:52.029Z,115
2018-03-02T07:30:32.622Z,110
2018-03-02T07:31:13.199Z,110
2018-03-02T07:31:55.054Z,110
2018-03-02T07:32:36.549Z,115
2018-03-02T07:33:17.112Z,115
2018-03-02T07:33:59.537Z,115
2018-03-02T07:34:40.082Z,115
2018-03-02T07:35:20.641Z,125
2018-03-02T07:36:01.202Z,125
2018-03-02T07:36:41.766Z,125
2018-03-02T07:37:22.327Z,125
2018-03-02T07:38:02.891Z,130
2018-03-02T07:38:43.452Z,130
2018-03-02T07:39:24.006Z,130
2018-03-02T07:40:04.568Z,140
2018-03-02T07:40:45.136Z,160
2018-03-02T07:41:25.685Z,170
2018-03-02T07:42:06.243Z,160
2018-03-02T07:42:46.811Z,145
2018-03-02T07:43:27.358Z,140
2018-03-02T07:44:07.922Z,135
2018-03-02T07:44:48.479Z,140
2018-03-02T07:45:29.034Z,145
2018-03-02T07:46:09.647Z,140
2018-03-02T07:46:50.197Z,150
2018-03-02T07:47:30.743Z,180
2018-03-02T07:48:11.301Z,275
2018-03-02T07:48:51.853Z,345
2018-03-02T07:49:32.483Z,350
2018-03-02T07:50:13.037Z,320
2018-03-02T07:50:53.600Z,370
2018-03-02T07:51:34.146Z,465
2018-03-02T07:52:14.706Z,670
2018-03-02T07:52:55.269Z,790
2018-03-02T07:53:35.817Z,1030
2018-03-02T07:54:16.373Z,1095
2018-03-02T07:54:56.938Z,1090
2018-03-02T07:55:37.491Z,1050
2018-03-02T07:56:18.040Z,1180
2018-03-02T07:56:58.618Z,1195
2018-03-02T07:57:39.166Z,1145
2018-03-02T07:58:19.723Z,1130
2018-03-02T07:59:00.270Z,1140
2018-03-02T07:59:40.820Z,1145
2018-03-02T08:00:21.426Z,1070
2018-03-02T08:01:01.965Z,825
2018-03-02T08:01:42.498Z,1195
2018-03-02T08:02:23.078Z,1210
2018-03-02T08:03:03.671Z,995
2018-03-02T08:03:44.237Z,560
2018-03-02T08:04:24.871Z,890
2018-03-02T08:05:05.349Z,1135
2018-03-02T08:05:45.895Z,1230
2018-03-02T08:06:26.444Z,1275
2018-03-02T08:07:06.998Z,1250
2018-03-02T08:07:47.556Z,1240
2018-03-02T08:08:28.126Z,1225
2018-03-02T08:09:08.696Z,1200
2018-03-02T08:09:49.272Z,1215
2018-03-02T08:10:29.838Z,1210
2018-03-02T08:11:10.397Z,1220
2018-03-02T08:11:50.954Z,1025
2018-03-02T08:12:31.507Z,1180
2018-03-02T08:13:12.078Z,1250
2018-03-02T08:13:52.620Z,1260
2018-03-02T08:14:33.191Z,1290
2018-03-02T08:15:13.751Z,1305
2018-03-02T08:15:54.306Z,1275
2018-03-02T08:16:34.875Z,1245
2018-03-02T08:17:15.430Z,1110
2018-03-02T08:17:56.005Z,1280
2018-03-02T08:18:36.572Z,1290
2018-03-02T08:19:17.135Z,1275
2018-03-02T08:19:57.695Z,1255
2018-03-02T08:20:38.250Z,1105
2018-03-02T08:21:18.818Z,1265
2018-03-02T08:21:59.383Z,1280
2018-03-02T08:22:39.982Z,1285
2018-03-02T08:23:20.549Z,1315
2018-03-02T08:24:01.089Z,1295
2018-03-02T08:24:41.666Z,1295
2018-03-02T08:25:22.206Z,1255
2018-03-02T08:26:02.770Z,1235
2018-03-02T08:26:43.352Z,1225
2018-03-02T08:27:23.951Z,1250
2018-03-02T08:28:04.547Z,1255
2018-03-02T08:28:45.095Z,1260
2018-03-02T08:29:25.701Z,1240
2018-03-02T08:30:06.372Z,1245
2018-03-02T08:30:46.951Z,1265
2018-03-02T08:31:27.509Z,1260
2018-03-02T08:32:08.074Z,1270
2018-03-02T08:32:48.651Z,1050
2018-03-02T08:33:29.209Z,1280
2018-03-02T08:34:09.781Z,1270
2018-03-02T08:34:50.337Z,1260
2018-03-02T08:35:30.921Z,1270
2018-03-02T08:36:11.459Z,1250
2018-03-02T08:36:52.019Z,1265
2018-03-02T08:37:32.647Z,1265
2018-03-02T08:38:13.762Z,1245
2018-03-02T08:38:54.507Z,1280
2018-03-02T08:39:35.085Z,1280
2018-03-02T08:40:15.635Z,1235
2018-03-02T08:40:56.186Z,1230
2018-03-02T08:41:36.744Z,1235
2018-03-02T08:42:17.294Z,1250
2018-03-02T08:42:57.853Z,1030
2018-03-02T08:43:38.439Z,1320
2018-03-02T08:44:19.033Z,1280
2018-03-02T08:44:59.596Z,1295
2018-03-02T08:45:40.157Z,1290
2018-03-02T08:46:20.708Z,1270
2018-03-02T08:47:01.292Z,1235
2018-03-02T08:47:41.875Z,1245
2018-03-02T08:48:22.429Z,1275
2018-03-02T08:49:02.997Z,1320
2018-03-02T08:49:43.565Z,1260
2018-03-02T08:50:24.162Z,1240
2018-03-02T08:51:04.757Z,1250
2018-03-02T08:51:45.461Z,1235
2018-03-02T08:52:26.038Z,1225
2018-03-02T08:53:06.600Z,1190
2018-03-02T08:53:47.450Z,1010
2018-03-02T08:54:28.000Z,735
2018-03-02T08:55:08.584Z,510
2018-03-02T08:55:49.149Z,415
2018-03-02T08:56:29.796Z,400
2018-03-02T08:57:10.359Z,395
2018-03-02T08:57:51.126Z,390
2018-03-02T08:58:31.586Z,380
2018-03-02T08:59:12.217Z,370
2018-03-02T08:59:52.778Z,365
2018-03-02T09:00:33.325Z,355
2018-03-02T09:01:13.900Z,350
2018-03-02T09:01:54.478Z,340
2018-03-02T09:02:35.038Z,340
2018-03-02T09:03:15.590Z,325
2018-03-02T09:03:56.147Z,320
2018-03-02T09:04:36.721Z,315
2018-03-02T09:05:17.359Z,315
2018-03-02T09:05:57.940Z,305
2018-03-02T09:06:38.560Z,295
2018-03-02T09:07:19.111Z,290
2018-03-02T09:07:59.677Z,285
2018-03-02T09:08:40.217Z,280
2018-03-02T09:09:20.780Z,280
2018-03-02T09:10:01.349Z,265
2018-03-02T09:10:41.939Z,265
2018-03-02T09:11:22.501Z,260
2018-03-02T09:12:03.055Z,255
2018-03-02T09:12:43.609Z,245
2018-03-02T09:13:24.237Z,245
2018-03-02T09:14:04.815Z,240
2018-03-02T09:14:45.371Z,240
2018-03-02T09:15:25.909Z,235
2018-03-02T09:16:06.477Z,235
2018-03-02T09:16:47.018Z,235
2018-03-02T09:17:27.562Z,225
2018-03-02T09:18:08.126Z,220
2018-03-02T09:18:48.686Z,220
2018-03-02T09:19:29.356Z,215
2018-03-02T09:20:10.122Z,215
2018-03-02T09:20:50.915Z,210
2018-03-02T09:21:31.452Z,205
2018-03-02T09:22:11.998Z,205
2018-03-02T09:22:52.567Z,205
2018-03-02T09:23:33.147Z,205
2018-03-02T09:24:13.794Z,200
2018-03-02T09:24:54.414Z,200
2018-03-02T09:25:35.005Z,195
2018-03-02T09:26:15.655Z,195
2018-03-02T09:26:56.187Z,195
2018-03-02T09:27:36.827Z,190
2018-03-02T09:28:17.548Z,185
2018-03-02T09:28:58.080Z,185
2018-03-02T09:29:38.625Z,185
2018-03-02T09:30:19.155Z,180
2018-03-02T09:30:59.701Z,180
2018-03-02T09:31:40.250Z,175
2018-03-02T09:32:20.780Z,175
2018-03-02T09:33:01.335Z,175
2018-03-02T09:33:41.935Z,175
2018-03-02T09:34:22.658Z,175
2018-03-02T09:35:03.210Z,170
2018-03-02T09:35:43.744Z,175
2018-03-02T09:36:24.295Z,175
2018-03-02T09:37:04.826Z,175
2018-03-02T09:37:45.391Z,170
2018-03-02T09:38:25.992Z,170
2018-03-02T09:39:06.570Z,170
2018-03-02T09:39:47.177Z,170
2018-03-02T09:40:27.716Z,165
2018-03-02T09:41:08.241Z,165
2018-03-02T09:41:48.797Z,165
2018-03-02T09:42:29.339Z,165
2018-03-02T09:43:09.917Z,165
2018-03-02T09:43:50.474Z,165
2018-03-02T09:44:31.002Z,165
2018-03-02T09:45:11.577Z,165
2018-03-02T09:45:52.123Z,160
2018-03-02T09:46:32.710Z,160
2018-03-02T09:47:13.210Z,165